Hovedside
METAR-TAF:

METAR-TAF

Lufthavner :

John A. Osborne lufthavn

Montserrat, Montserrat

breddegrad: 16-47-29N, lengdegrad: 062-11-36W, høyde over havet: 168 m

Gjeldene værobservasjon

Denne rapporten ble laget for 20 minutter siden, klokken 14:00 UTC
Vind 16 kt fra Øst
Temperatur 30°C
Luftfuktighet 79%
Trykk 1018 hPa
Sikt 10 km eller mer
Få skyer i en høyde av 2100 ft

METAR: TRPG 191400Z 10016KT 9999 FEW021 30/26 Q1018

Tid: 10:20 (14:20 UTC)

Varsel

Denne rapporten ble laget for 3 timer og 20 minutter siden, klokken 11:00 UTC
Varsel gyldig fra 19. klokken 12 UTC til 20. klokken 12 UTC
Vind 9 kt fra Øst-sørøst
Sikt 10 km eller mer
Spredte skyer i en høyde av 2200 ft

TAF: TRPG 191100Z 1912/2012 11009KT 9999 SCT022

Værobservasjoner og værvarsel for over 4000 flyplasser (METAR- og TAF-rapporter).

Tilgjengelige stasjoner er representert av de røde og gule prikkene på kartet.

Hold musepekeren over prikken for å se navnet på stasjonen.

Klikk så for å se værobservasjoner og -varsler.

For å forandre kartet kan du klikke på den grønne knappen med svart kryss for å zoome inn, på den grønne knappen med strek for å zoome ut, eller på de grønne pilene for å se tilstøtende kart.


METAR-TAF: